Time;durP1;ratioP1;P1;durP2;ratioP2;P2;SDS_P1;SDS_P2;PMS_P1;PMS_P2;Temp;Humidity;BMP_temperature;BMP_pressure;BME280_temperature;BME280_humidity;BME280_pressure;Samples;Min_cycle;Max_cycle;Signal;HPM_P1;HPM_P2
2021/10/03 00:01:33;;;;;;;28.00;17.27;;;;;;;7.93;59.25;100649.84;1775415;80;21820;-39
2021/10/03 00:04:00;;;;;;;28.10;18.42;;;;;;;7.90;59.26;100650.45;1773756;80;20883;-39
2021/10/03 00:06:27;;;;;;;29.05;18.32;;;;;;;7.88;59.04;100654.58;1770064;80;21118;-39
2021/10/03 00:08:54;;;;;;;28.50;17.82;;;;;;;7.84;59.06;100648.42;1761024;80;20969;-39
2021/10/03 00:11:22;;;;;;;27.13;18.10;;;;;;;7.82;59.12;100653.36;1765840;80;21088;-39
2021/10/03 00:13:48;;;;;;;31.07;17.90;;;;;;;7.79;59.15;100659.94;1753860;80;21106;-39
2021/10/03 00:16:15;;;;;;;29.42;17.98;;;;;;;7.76;59.19;100664.03;1747031;80;21540;-39
2021/10/03 00:18:42;;;;;;;29.82;18.02;;;;;;;7.74;59.34;100662.77;1764552;80;20966;-39
2021/10/03 00:21:10;;;;;;;28.30;18.55;;;;;;;7.71;59.42;100666.06;1788399;80;21050;-39
2021/10/03 00:23:39;;;;;;;29.72;18.23;;;;;;;7.66;59.62;100654.03;1793334;80;21073;-39
2021/10/03 00:26:06;;;;;;;29.27;18.55;;;;;;;7.63;59.82;100658.16;1793293;80;21094;-39
2021/10/03 00:28:33;;;;;;;31.55;19.07;;;;;;;7.59;59.87;100652.34;1768410;80;20949;-39
2021/10/03 00:30:59;;;;;;;32.35;19.30;;;;;;;7.56;59.80;100659.14;1742993;81;21001;-39
2021/10/03 00:33:26;;;;;;;27.87;18.12;;;;;;;7.52;59.96;100657.36;1741042;81;21028;-39
2021/10/03 00:35:53;;;;;;;29.45;18.15;;;;;;;7.49;60.16;100657.44;1766748;80;21037;-39
2021/10/03 00:38:20;;;;;;;25.92;17.00;;;;;;;7.47;60.16;100652.89;1764466;80;22004;-39
2021/10/03 00:40:47;;;;;;;31.30;17.80;;;;;;;7.53;60.02;100648.97;1753434;80;20968;-39
2021/10/03 00:43:13;;;;;;;29.95;19.10;;;;;;;7.58;59.98;100648.05;1748537;82;21000;-39
2021/10/03 00:45:42;;;;;;;29.70;18.90;;;;;;;7.61;59.91;100650.91;1748476;82;21052;-39
2021/10/03 00:48:08;;;;;;;31.12;18.40;;;;;;;7.64;59.77;100650.87;1773284;80;21096;-39
2021/10/03 00:50:37;;;;;;;30.45;19.15;;;;;;;7.66;59.71;100649.98;1786683;80;21139;-39
2021/10/03 00:53:04;;;;;;;31.27;19.00;;;;;;;7.68;59.68;100646.44;1793052;80;22030;-39
2021/10/03 00:55:31;;;;;;;29.23;19.40;;;;;;;7.67;59.64;100648.89;1793207;80;20958;-39
2021/10/03 00:57:57;;;;;;;28.27;18.48;;;;;;;7.67;59.62;100646.99;1780013;80;21049;-39
2021/10/03 01:00:27;;;;;;;30.62;19.55;;;;;;;7.66;59.65;100643.23;1767454;80;21448;-39
2021/10/03 01:02:54;;;;;;;31.50;18.98;;;;;;;7.66;59.71;100648.64;1780227;80;21158;-40
2021/10/03 01:05:21;;;;;;;35.30;19.20;;;;;;;7.63;59.75;100646.02;1778267;80;21554;-39
2021/10/03 01:07:47;;;;;;;30.40;18.25;;;;;;;7.59;59.79;100645.59;1758243;80;20970;-39
2021/10/03 01:10:23;;;;;;;29.02;19.00;;;;;;;7.54;59.94;100644.37;1776139;79;20965;-39
2021/10/03 01:12:57;;;;;;;33.15;19.55;;;;;;;7.49;59.99;100645.30;1789617;79;21029;-40
2021/10/03 01:15:25;;;;;;;30.65;19.52;;;;;;;7.47;60.12;100643.98;1783198;79;21122;-39
2021/10/03 01:17:52;;;;;;;30.77;18.17;;;;;;;7.46;60.13;100642.39;1782821;79;20973;-39
2021/10/03 01:20:19;;;;;;;28.92;19.42;;;;;;;7.43;60.21;100645.97;1725105;81;21028;-39
2021/10/03 01:22:45;;;;;;;33.30;20.50;;;;;;;7.39;60.32;100642.30;1698938;84;21105;-39
2021/10/03 01:25:12;;;;;;;31.80;19.05;;;;;;;7.36;60.36;100636.14;1690367;83;21064;-39
2021/10/03 01:27:40;;;;;;;30.97;19.82;;;;;;;7.35;60.42;100638.62;1733240;81;21924;-39
2021/10/03 01:30:13;;;;;;;28.20;18.05;;;;;;;7.33;60.47;100643.52;1703192;83;21571;-39
2021/10/03 01:32:39;;;;;;;40.03;18.62;;;;;;;7.34;60.58;100646.45;1693651;84;21024;-39
2021/10/03 01:35:08;;;;;;;27.02;17.57;;;;;;;7.36;60.55;100641.53;1681751;85;21005;-39
2021/10/03 01:37:35;;;;;;;28.57;17.87;;;;;;;7.43;60.54;100636.52;1751861;79;21045;-39
2021/10/03 01:40:04;;;;;;;30.62;18.77;;;;;;;7.47;60.42;100638.05;1756180;80;21083;-39
2021/10/03 01:42:32;;;;;;;28.17;17.50;;;;;;;7.49;60.35;100645.30;1741585;82;21547;-39
2021/10/03 01:44:58;;;;;;;27.80;18.67;;;;;;;7.52;60.33;100641.97;1741113;82;21044;-39
2021/10/03 01:47:25;;;;;;;33.20;17.57;;;;;;;7.52;60.37;100642.52;1744550;80;21088;-39
2021/10/03 01:49:51;;;;;;;25.27;17.17;;;;;;;7.54;60.38;100647.07;1742046;80;21064;-39
2021/10/03 01:52:18;;;;;;;27.67;18.07;;;;;;;7.54;60.40;100643.02;1741451;82;21796;-39
2021/10/03 01:54:45;;;;;;;32.30;18.45;;;;;;;7.54;60.58;100641.13;1748232;81;21207;-39
2021/10/03 01:57:12;;;;;;;30.40;19.37;;;;;;;7.53;60.74;100637.37;1770400;80;21005;-39
2021/10/03 01:59:40;;;;;;;27.42;18.10;;;;;;;7.51;60.97;100642.27;1775466;79;21705;-39
2021/10/03 02:02:07;;;;;;;27.37;17.95;;;;;;;7.50;61.10;100640.70;1803960;79;21096;-39
2021/10/03 02:04:34;;;;;;;26.57;17.62;;;;;;;7.46;61.27;100643.19;1803744;79;21571;-39
2021/10/03 02:07:01;;;;;;;27.87;16.65;;;;;;;7.45;61.56;100647.02;1784117;79;20978;-39
2021/10/03 02:09:28;;;;;;;27.40;17.85;;;;;;;7.49;61.66;100645.84;1772011;80;20949;-39
2021/10/03 02:11:58;;;;;;;27.35;17.85;;;;;;;7.53;61.75;100642.22;1773128;80;20981;-38
2021/10/03 02:14:31;;;;;;;27.58;19.05;;;;;;;7.54;61.88;100644.37;1773754;80;21542;-38
2021/10/03 02:17:00;;;;;;;26.97;18.42;;;;;;;7.56;61.92;100647.55;1780559;80;21576;-39
2021/10/03 02:19:28;;;;;;;26.80;18.27;;;;;;;7.59;61.95;100645.59;1784813;80;21029;-38
2021/10/03 02:21:55;;;;;;;29.72;18.90;;;;;;;7.59;61.95;100644.25;1767745;81;20973;-38
2021/10/03 02:24:21;;;;;;;27.42;18.48;;;;;;;7.59;62.01;100645.59;1768026;80;20974;-39
2021/10/03 02:26:48;;;;;;;27.37;19.50;;;;;;;7.58;62.06;100648.84;1749639;80;21622;-38
2021/10/03 02:29:14;;;;;;;29.27;20.08;;;;;;;7.56;62.17;100648.34;1749590;80;21095;-38
2021/10/03 02:31:42;;;;;;;30.25;19.27;;;;;;;7.55;62.29;100650.02;1716364;82;21017;-38
2021/10/03 02:34:08;;;;;;;31.33;19.25;;;;;;;7.52;62.42;100647.92;1727060;83;21101;-38
2021/10/03 02:36:35;;;;;;;25.30;17.92;;;;;;;7.51;62.52;100647.11;1725472;83;21026;-38
2021/10/03 02:39:01;;;;;;;31.20;19.27;;;;;;;7.53;62.67;100646.27;1773618;80;21065;-38
2021/10/03 02:41:27;;;;;;;29.85;18.92;;;;;;;7.58;62.73;100643.45;1773755;80;21143;-38
2021/10/03 02:43:56;;;;;;;29.75;18.17;;;;;;;7.60;62.83;100647.20;1771276;80;21469;-38
2021/10/03 02:46:23;;;;;;;29.35;19.67;;;;;;;7.60;62.97;100647.20;1754323;80;21546;-38
2021/10/03 02:48:50;;;;;;;30.92;20.23;;;;;;;7.62;63.07;100644.97;1742946;82;21008;-38
2021/10/03 02:51:19;;;;;;;30.20;19.25;;;;;;;7.62;63.12;100647.67;1743022;82;21532;-38
2021/10/03 02:53:47;;;;;;;34.98;19.40;;;;;;;7.61;63.22;100646.06;1743027;82;21073;-38
2021/10/03 02:56:17;;;;;;;29.05;19.70;;;;;;;7.60;63.29;100646.61;1744924;80;21037;-38
2021/10/03 02:58:44;;;;;;;30.12;18.80;;;;;;;7.59;63.36;100645.05;1768992;80;21024;-38
2021/10/03 03:01:10;;;;;;;27.95;17.73;;;;;;;7.59;63.24;100641.00;1772029;80;21081;-38
2021/10/03 03:03:37;;;;;;;26.07;17.02;;;;;;;7.63;63.29;100641.97;1772454;80;21538;-38
2021/10/03 03:06:06;;;;;;;26.95;18.07;;;;;;;7.66;63.51;100643.23;1772516;80;21131;-39
2021/10/03 03:08:33;;;;;;;28.98;18.10;;;;;;;7.67;63.74;100641.59;1732056;80;20965;-38
2021/10/03 03:11:01;;;;;;;26.73;17.80;;;;;;;7.69;63.90;100633.20;1732158;82;21048;-38
2021/10/03 03:13:28;;;;;;;28.57;18.17;;;;;;;7.72;64.05;100636.62;1732388;80;20990;-38
2021/10/03 03:15:56;;;;;;;27.05;17.92;;;;;;;7.72;64.19;100637.42;1767796;80;21083;-38
2021/10/03 03:18:22;;;;;;;24.87;17.55;;;;;;;7.72;64.29;100635.27;1754698;80;22121;-38
2021/10/03 03:22:30;;;;;;;23.67;16.95;;;;;;;7.73;64.72;100636.87;1778834;79;22283;-38
2021/10/03 03:24:56;;;;;;;25.90;17.02;;;;;;;7.69;64.95;100641.30;1734462;80;20933;-38
2021/10/03 03:27:23;;;;;;;24.90;16.95;;;;;;;7.73;65.01;100644.42;1744678;80;21880;-38
2021/10/03 03:29:50;;;;;;;27.95;17.48;;;;;;;7.80;64.96;100652.06;1756781;81;20898;-38
2021/10/03 03:32:16;;;;;;;23.05;17.05;;;;;;;7.82;64.97;100653.36;1756689;81;20918;-38
2021/10/03 03:34:43;;;;;;;23.60;17.42;;;;;;;7.86;64.99;100649.48;1756828;81;20890;-38
2021/10/03 03:37:10;;;;;;;22.85;17.17;;;;;;;7.91;64.89;100653.95;1756451;81;20926;-38
2021/10/03 03:39:38;;;;;;;27.17;17.75;;;;;;;7.90;64.82;100647.75;1754976;81;21187;-38
2021/10/03 03:42:05;;;;;;;26.12;18.10;;;;;;;7.89;64.81;100651.55;1753047;81;20964;-38
2021/10/03 03:44:32;;;;;;;23.67;16.95;;;;;;;7.89;64.83;100653.48;1748602;82;20926;-38
2021/10/03 03:47:00;;;;;;;24.35;17.20;;;;;;;7.87;64.75;100659.17;1716305;81;21064;-38
2021/10/03 03:49:28;;;;;;;24.70;16.80;;;;;;;7.87;64.66;100657.83;1733920;80;21012;-38
2021/10/03 03:51:55;;;;;;;22.95;16.50;;;;;;;7.87;64.67;100667.28;1756949;81;21095;-38
2021/10/03 03:54:23;;;;;;;24.57;17.05;;;;;;;7.87;64.66;100668.63;1756455;81;20925;-38
2021/10/03 03:56:51;;;;;;;24.77;17.65;;;;;;;7.85;64.61;100662.72;1755734;80;20952;-38
2021/10/03 03:59:17;;;;;;;27.20;17.65;;;;;;;7.85;64.51;100669.48;1752092;80;21008;-38
2021/10/03 04:01:44;;;;;;;24.20;17.95;;;;;;;7.84;64.45;100669.25;1735834;80;21515;-38
2021/10/03 04:04:10;;;;;;;23.20;18.12;;;;;;;7.81;64.36;100667.95;1745600;81;21099;-38
2021/10/03 04:06:37;;;;;;;23.40;16.77;;;;;;;7.78;64.31;100670.48;1750468;80;21012;-38
2021/10/03 04:09:06;;;;;;;22.37;16.62;;;;;;;7.76;64.23;100676.18;1752015;80;20982;-38
2021/10/03 04:11:32;;;;;;;23.70;17.40;;;;;;;7.78;64.18;100673.19;1756892;81;21041;-38
2021/10/03 04:13:59;;;;;;;26.55;17.00;;;;;;;7.77;64.09;100669.69;1734673;80;21008;-38
2021/10/03 04:16:25;;;;;;;23.67;17.77;;;;;;;7.78;63.96;100669.94;1733207;80;21879;-38
2021/10/03 04:18:52;;;;;;;23.12;17.00;;;;;;;7.79;63.86;100673.44;1754861;80;20985;-38
2021/10/03 04:21:19;;;;;;;24.50;17.65;;;;;;;7.78;63.77;100671.83;1756739;81;20921;-38
2021/10/03 04:23:45;;;;;;;28.38;17.23;;;;;;;7.76;63.78;100672.69;1738097;80;20997;-38
2021/10/03 04:26:12;;;;;;;25.02;17.25;;;;;;;7.73;63.68;100680.05;1726725;80;21012;-38
2021/10/03 04:28:39;;;;;;;24.05;16.67;;;;;;;7.71;63.71;100678.20;1756809;81;21128;-38
2021/10/03 04:31:05;;;;;;;25.77;17.30;;;;;;;7.67;63.76;100679.93;1755316;80;20973;-38
2021/10/03 04:33:31;;;;;;;22.73;17.15;;;;;;;7.64;63.80;100681.91;1741033;80;21522;-38
2021/10/03 04:35:58;;;;;;;21.57;16.32;;;;;;;7.64;63.79;100680.55;1728787;81;21025;-38
2021/10/03 04:38:25;;;;;;;22.70;16.82;;;;;;;7.66;63.77;100686.42;1756151;80;20997;-38
2021/10/03 04:40:53;;;;;;;26.17;16.77;;;;;;;7.67;63.72;100688.03;1743934;80;21253;-38
2021/10/03 04:43:19;;;;;;;24.67;16.62;;;;;;;7.69;63.70;100684.48;1727182;80;20973;-38
2021/10/03 04:45:46;;;;;;;23.20;17.40;;;;;;;7.70;63.67;100686.85;1747206;81;21634;-38
2021/10/03 04:48:13;;;;;;;25.82;17.75;;;;;;;7.72;63.66;100691.95;1758814;80;21009;-38
2021/10/03 04:50:39;;;;;;;24.12;17.48;;;;;;;7.72;63.67;100688.70;1754814;80;21033;-38
2021/10/03 04:53:07;;;;;;;25.57;17.60;;;;;;;7.72;63.76;100690.05;1750286;80;21151;-38
2021/10/03 04:55:34;;;;;;;26.33;16.57;;;;;;;7.72;63.81;100689.25;1740031;81;21018;-38
2021/10/03 04:58:00;;;;;;;24.92;16.67;;;;;;;7.73;63.93;100690.86;1734164;81;21140;-38
2021/10/03 05:00:27;;;;;;;23.62;16.65;;;;;;;7.77;64.01;100698.03;1749387;80;20969;-38
2021/10/03 05:02:54;;;;;;;25.70;16.55;;;;;;;7.81;64.02;100700.91;1755442;80;21001;-38
2021/10/03 05:05:22;;;;;;;24.98;16.62;;;;;;;7.84;64.10;100697.61;1758987;80;21114;-38
2021/10/03 05:07:49;;;;;;;23.73;17.40;;;;;;;7.89;64.23;100707.48;1749019;80;20930;-38
2021/10/03 05:10:16;;;;;;;25.72;17.80;;;;;;;7.94;64.21;100701.37;1755759;81;21603;-38
2021/10/03 05:12:44;;;;;;;25.35;17.62;;;;;;;7.97;64.16;100697.27;1755942;81;20925;-38
2021/10/03 05:15:12;;;;;;;24.27;17.00;;;;;;;8.00;64.15;100696.64;1756032;81;20922;-39
2021/10/03 05:17:39;;;;;;;26.75;18.00;;;;;;;8.03;64.21;100692.80;1751368;80;21753;-39
2021/10/03 05:20:07;;;;;;;30.25;17.35;;;;;;;8.08;64.23;100696.71;1764407;80;21510;-39
2021/10/03 05:22:34;;;;;;;26.68;16.42;;;;;;;8.13;64.12;100697.90;1760913;80;21021;-39
2021/10/03 05:25:01;;;;;;;26.15;17.12;;;;;;;8.19;64.08;100693.17;1754144;80;21815;-39
2021/10/03 05:27:28;;;;;;;25.35;17.48;;;;;;;8.25;64.09;100691.37;1740123;80;21005;-39
2021/10/03 05:29:55;;;;;;;26.70;17.50;;;;;;;8.29;64.22;100692.89;1764027;80;21576;-39
2021/10/03 05:32:21;;;;;;;24.57;17.62;;;;;;;8.36;64.29;100696.54;1768590;81;21008;-39
2021/10/03 05:34:48;;;;;;;25.72;17.87;;;;;;;8.43;64.31;100684.71;1740519;80;21481;-39
2021/10/03 05:37:16;;;;;;;26.57;17.20;;;;;;;8.36;64.32;100669.52;1737204;82;20926;-39
2021/10/03 05:39:43;;;;;;;28.70;18.10;;;;;;;8.55;64.25;100688.98;1720937;81;21045;-39
2021/10/03 05:42:10;;;;;;;25.00;17.25;;;;;;;8.60;64.25;100693.70;1720561;80;21069;-39
2021/10/03 05:44:37;;;;;;;25.80;16.93;;;;;;;8.66;64.25;100688.95;1729237;80;20965;-39
2021/10/03 05:47:04;;;;;;;24.37;15.90;;;;;;;8.75;64.18;100695.16;1719582;82;21515;-38
2021/10/03 05:49:31;;;;;;;23.90;16.82;;;;;;;8.82;64.17;100694.13;1742807;80;21558;-38
2021/10/03 05:51:58;;;;;;;24.95;16.73;;;;;;;8.91;64.15;100698.20;1738952;80;20983;-38
2021/10/03 05:54:25;;;;;;;26.23;16.80;;;;;;;8.98;64.07;100697.99;1738956;80;21788;-38
2021/10/03 05:56:51;;;;;;;24.80;17.00;;;;;;;9.06;64.10;100701.26;1723441;82;21037;-38
2021/10/03 05:59:18;;;;;;;24.90;16.30;;;;;;;9.14;64.14;100701.84;1740527;80;21021;-39
2021/10/03 06:01:45;;;;;;;22.85;16.70;;;;;;;9.25;63.96;100702.86;1755745;81;21329;-38
2021/10/03 06:04:11;;;;;;;25.35;17.05;;;;;;;9.31;63.92;100698.89;1741312;81;21099;-39
2021/10/03 06:06:38;;;;;;;23.90;15.95;;;;;;;9.39;63.68;100704.30;1769019;80;21143;-38
2021/10/03 06:09:04;;;;;;;24.80;16.17;;;;;;;9.46;63.40;100708.69;1756458;80;21464;-38
2021/10/03 06:11:33;;;;;;;23.27;15.58;;;;;;;9.55;63.21;100707.33;1740853;80;20978;-39
2021/10/03 06:13:59;;;;;;;27.20;16.17;;;;;;;9.67;63.07;100709.41;1769518;80;21134;-38
2021/10/03 06:16:26;;;;;;;25.12;15.85;;;;;;;9.77;62.97;100709.88;1743779;80;21037;-38
2021/10/03 06:18:54;;;;;;;28.07;16.32;;;;;;;9.87;62.94;100712.25;1759604;80;21132;-38
2021/10/03 06:21:20;;;;;;;22.70;15.72;;;;;;;9.97;62.65;100710.53;1755376;80;21481;-39
2021/10/03 06:23:48;;;;;;;23.20;15.88;;;;;;;10.06;62.55;100711.09;1756765;80;21004;-39
2021/10/03 06:26:15;;;;;;;26.60;15.93;;;;;;;10.15;62.27;100711.86;1761466;80;21072;-39
2021/10/03 06:28:42;;;;;;;27.35;16.02;;;;;;;10.24;62.09;100706.67;1756427;80;20985;-39
2021/10/03 06:31:10;;;;;;;29.80;18.00;;;;;;;10.32;61.81;100713.97;1736700;81;21080;-39
2021/10/03 06:33:37;;;;;;;24.85;15.88;;;;;;;10.40;61.91;100717.23;1771300;81;20922;-39
2021/10/03 06:36:06;;;;;;;23.87;15.40;;;;;;;10.50;61.98;100716.08;1766988;81;20973;-39
2021/10/03 06:38:32;;;;;;;23.55;14.90;;;;;;;10.59;61.34;100716.03;1726235;83;21048;-39
2021/10/03 06:40:59;;;;;;;23.47;14.43;;;;;;;10.68;60.81;100714.06;1755472;80;21041;-39
2021/10/03 06:43:26;;;;;;;22.10;14.25;;;;;;;10.77;60.53;100716.97;1765632;81;21187;-39
2021/10/03 06:45:53;;;;;;;24.02;14.65;;;;;;;10.87;60.40;100718.52;1765039;80;20950;-39
2021/10/03 06:48:19;;;;;;;19.42;13.50;;;;;;;10.98;60.16;100718.37;1756551;81;21008;-39
2021/10/03 06:50:46;;;;;;;22.93;14.30;;;;;;;11.07;59.76;100716.39;1756479;80;21563;-39
2021/10/03 06:53:13;;;;;;;24.43;14.43;;;;;;;11.15;59.19;100710.66;1755780;80;21025;-39
2021/10/03 06:55:40;;;;;;;22.37;14.70;;;;;;;11.23;58.86;100709.83;1758877;80;21110;-39
2021/10/03 06:58:06;;;;;;;22.15;14.60;;;;;;;11.32;59.34;100705.13;1764890;80;21574;-39
2021/10/03 07:00:33;;;;;;;21.68;13.72;;;;;;;11.43;58.86;100702.78;1762792;80;21045;-39
2021/10/03 07:02:59;;;;;;;16.67;12.05;;;;;;;11.53;58.38;100701.81;1757086;80;20969;-39
2021/10/03 07:05:26;;;;;;;21.23;12.58;;;;;;;11.64;57.85;100711.16;1757154;80;21025;-40
2021/10/03 07:07:53;;;;;;;21.17;13.98;;;;;;;11.78;57.21;100710.09;1760372;80;21977;-39
2021/10/03 07:10:20;;;;;;;20.25;13.13;;;;;;;11.92;56.68;100705.16;1760763;80;21000;-39
2021/10/03 07:12:46;;;;;;;21.48;12.28;;;;;;;12.07;56.66;100709.95;1761537;80;20936;-39
2021/10/03 07:15:13;;;;;;;19.85;11.63;;;;;;;12.20;55.85;100704.77;1755827;81;21018;-39
2021/10/03 07:17:40;;;;;;;20.15;11.88;;;;;;;12.34;54.72;100709.34;1754306;80;21078;-39
2021/10/03 07:20:08;;;;;;;17.23;11.12;;;;;;;12.48;54.02;100701.66;1757620;80;21963;-39
2021/10/03 07:22:35;;;;;;;17.20;10.68;;;;;;;12.63;53.16;100706.39;1749234;80;20998;-39
2021/10/03 07:25:01;;;;;;;16.73;10.63;;;;;;;12.78;52.82;100705.52;1749646;82;20963;-39
2021/10/03 07:27:29;;;;;;;15.60;10.40;;;;;;;12.91;52.19;100709.23;1744091;80;20970;-39
2021/10/03 07:29:56;;;;;;;17.80;10.25;;;;;;;13.05;51.88;100704.22;1750386;82;21025;-39
2021/10/03 07:32:23;;;;;;;14.18;9.93;;;;;;;13.19;51.55;100705.24;1750831;82;21085;-39
2021/10/03 07:34:49;;;;;;;14.05;9.68;;;;;;;13.33;50.04;100702.94;1742730;80;22141;-39
2021/10/03 07:37:16;;;;;;;16.25;9.35;;;;;;;13.47;49.37;100711.52;1743484;82;21548;-41
2021/10/03 07:39:43;;;;;;;14.05;9.35;;;;;;;13.61;49.25;100707.59;1737591;80;20990;-42
2021/10/03 07:42:10;;;;;;;17.23;9.70;;;;;;;13.73;47.98;100700.75;1761483;80;21515;-42
2021/10/03 07:44:36;;;;;;;14.95;10.05;;;;;;;13.84;47.95;100699.12;1744607;80;21145;-42
2021/10/03 07:47:04;;;;;;;15.83;9.70;;;;;;;13.94;47.85;100701.34;1746386;80;21445;-42
2021/10/03 07:49:31;;;;;;;12.70;8.70;;;;;;;14.06;47.24;100704.55;1730273;82;20965;-42
2021/10/03 07:51:57;;;;;;;12.75;8.38;;;;;;;14.17;47.29;100702.90;1743023;82;21069;-42
2021/10/03 07:54:24;;;;;;;14.40;8.35;;;;;;;14.28;46.42;100703.38;1736000;82;21065;-42
2021/10/03 07:56:51;;;;;;;13.65;8.73;;;;;;;14.42;45.59;100702.20;1743300;80;21222;-42
2021/10/03 07:59:18;;;;;;;16.97;8.08;;;;;;;14.53;45.06;100703.23;1721772;82;20961;-42
2021/10/03 08:01:45;;;;;;;17.85;8.58;;;;;;;14.64;44.19;100699.62;1737250;82;22144;-41
2021/10/03 08:04:12;;;;;;;13.25;7.37;;;;;;;14.76;43.38;100698.73;1741521;80;20973;-42
2021/10/03 08:06:38;;;;;;;12.05;6.95;;;;;;;14.86;42.94;100697.40;1735084;82;21005;-41
2021/10/03 08:09:05;;;;;;;12.10;6.83;;;;;;;14.96;42.18;100700.34;1719747;82;21185;-42
2021/10/03 08:11:32;;;;;;;12.45;6.72;;;;;;;15.05;41.67;100696.08;1730636;82;21013;-42
2021/10/03 08:13:59;;;;;;;9.13;6.37;;;;;;;15.15;41.47;100697.65;1730168;82;21025;-42
2021/10/03 08:16:27;;;;;;;9.05;6.15;;;;;;;15.27;38.10;100699.48;1726243;82;21845;-42
2021/10/03 08:18:57;;;;;;;11.50;7.00;;;;;;;15.33;40.06;100700.78;1724749;82;21300;-42
2021/10/03 08:21:21;;;;;;;12.23;6.90;;;;;;;15.43;39.81;100704.89;1721315;83;21794;-41
2021/10/03 08:23:50;;;;;;;10.08;6.50;;;;;;;15.54;39.82;100700.47;1738315;82;20965;-41
2021/10/03 08:26:17;;;;;;;10.23;6.37;;;;;;;15.66;38.95;100703.04;1738399;82;21002;-41
2021/10/03 08:28:44;;;;;;;14.25;6.35;;;;;;;15.78;39.02;100705.61;1732030;82;20969;-41
2021/10/03 08:31:11;;;;;;;8.60;5.50;;;;;;;15.90;38.71;100704.09;1722584;82;21368;-41
2021/10/03 08:33:37;;;;;;;11.55;5.08;;;;;;;16.00;37.95;100698.03;1678961;85;21090;-41
2021/10/03 08:36:04;;;;;;;8.88;5.58;;;;;;;16.09;37.90;100706.79;1679234;85;21044;-41
2021/10/03 08:38:31;;;;;;;7.75;5.20;;;;;;;16.21;37.56;100705.05;1678606;85;21462;-41
2021/10/03 08:40:57;;;;;;;7.75;4.45;;;;;;;16.31;37.64;100708.55;1722500;82;21040;-41
2021/10/03 08:43:24;;;;;;;6.20;4.37;;;;;;;16.39;37.15;100708.87;1738105;82;21040;-41
2021/10/03 08:45:50;;;;;;;8.33;4.85;;;;;;;16.52;36.11;100706.94;1738362;82;21086;-41
2021/10/03 08:48:17;;;;;;;8.23;4.83;;;;;;;16.67;35.45;100699.77;1722162;82;21021;-41
2021/10/03 08:50:46;;;;;;;7.20;3.98;;;;;;;16.81;35.94;100697.83;1704879;84;21134;-41
2021/10/03 08:53:14;;;;;;;7.72;4.08;;;;;;;17.00;35.58;100698.28;1730755;82;21093;-41
2021/10/03 08:55:41;;;;;;;8.55;4.20;;;;;;;17.19;32.90;100696.79;1714866;82;20984;-41
2021/10/03 08:58:08;;;;;;;5.85;4.00;;;;;;;17.27;33.21;100694.37;1724145;82;21571;-41
2021/10/03 09:00:49;;;;;;;5.92;3.80;;;;;;;17.37;33.26;100692.35;1713422;82;21061;-41
2021/10/03 09:03:19;;;;;;;6.50;3.87;;;;;;;17.51;33.08;100698.01;1641612;85;21065;-41
2021/10/03 09:05:50;;;;;;;8.05;4.17;;;;;;;17.66;32.53;100702.53;1724551;82;21010;-41
2021/10/03 09:08:23;;;;;;;7.55;4.00;;;;;;;17.80;31.64;100701.31;1676860;84;21033;-41
2021/10/03 09:10:56;;;;;;;6.08;3.98;;;;;;;17.91;31.90;100704.77;1713455;82;21150;-41
2021/10/03 09:13:34;;;;;;;6.75;3.80;;;;;;;18.04;31.35;100701.95;1703486;82;20945;-41
2021/10/03 09:16:24;;;;;;;4.97;3.83;;;;;;;18.18;31.09;100702.08;1725897;82;20922;-41
2021/10/03 09:19:00;;;;;;;5.78;4.47;;;;;;;18.27;30.59;100702.55;1711948;82;21063;-41
2021/10/03 09:21:33;;;;;;;6.92;3.80;;;;;;;18.28;30.37;100697.86;1736061;82;21115;-41
2021/10/03 09:24:16;;;;;;;7.47;4.05;;;;;;;18.32;30.78;100699.47;1724223;82;21778;-41
2021/10/03 09:27:03;;;;;;;5.15;4.00;;;;;;;18.43;30.33;100705.05;1734742;81;21040;-41
2021/10/03 09:29:33;;;;;;;8.33;4.20;;;;;;;18.50;29.48;100704.52;1746638;82;21015;-41
2021/10/03 09:32:10;;;;;;;7.05;3.87;;;;;;;18.54;30.43;100703.98;1727470;82;21028;-41
2021/10/03 09:34:38;;;;;;;6.47;4.15;;;;;;;18.59;30.06;100691.27;1691609;84;21032;-41
2021/10/03 09:37:29;;;;;;;9.08;4.05;;;;;;;18.70;30.64;100694.69;1667851;84;21159;-41
2021/10/03 09:40:13;;;;;;;8.95;4.10;;;;;;;18.82;29.82;100691.06;1656530;85;21384;-41
2021/10/03 09:42:40;;;;;;;5.37;3.90;;;;;;;18.93;30.22;100692.48;1662903;86;21534;-41
2021/10/03 09:45:14;;;;;;;6.90;4.03;;;;;;;19.04;30.29;100689.22;1664169;85;21031;-41
2021/10/03 09:47:44;;;;;;;5.67;4.33;;;;;;;19.14;29.64;100688.48;1669781;84;21310;-41
2021/10/03 09:50:14;;;;;;;6.97;4.00;;;;;;;19.16;29.56;100683.41;1690632;84;21096;-41
2021/10/03 09:52:41;;;;;;;9.90;3.87;;;;;;;19.21;30.09;100676.17;1686794;84;20994;-41
2021/10/03 09:55:13;;;;;;;5.90;3.92;;;;;;;19.33;30.00;100678.56;1681443;84;20982;-41
2021/10/03 09:57:38;;;;;;;6.40;3.60;;;;;;;19.47;29.42;100680.61;1677954;83;21360;-41
2021/10/03 10:00:07;;;;;;;8.25;4.15;;;;;;;19.58;29.31;100673.78;1685836;85;21111;-41
2021/10/03 10:02:34;;;;;;;7.92;3.98;;;;;;;19.68;28.90;100667.52;1687252;84;21873;-41
2021/10/03 10:05:01;;;;;;;5.10;3.70;;;;;;;19.74;28.84;100665.39;1692985;84;20988;-42
2021/10/03 10:07:32;;;;;;;6.42;3.87;;;;;;;19.73;28.23;100663.81;1691743;83;21025;-41
2021/10/03 10:09:59;;;;;;;5.15;3.25;;;;;;;19.75;28.58;100657.31;1661081;85;21050;-41
2021/10/03 10:12:26;;;;;;;5.15;3.72;;;;;;;19.86;27.98;100665.59;1673382;84;21040;-41
2021/10/03 10:14:59;;;;;;;6.25;3.55;;;;;;;19.95;28.18;100656.36;1678731;84;21179;-41
2021/10/03 10:17:35;;;;;;;7.08;3.30;;;;;;;19.99;28.44;100651.67;1681754;84;21057;-41
2021/10/03 10:20:06;;;;;;;7.12;3.98;;;;;;;20.05;28.78;100646.55;1670109;84;21085;-41
2021/10/03 10:22:35;;;;;;;9.83;3.90;;;;;;;20.17;28.09;100644.80;1679010;84;20952;-42
2021/10/03 10:25:08;;;;;;;4.53;3.30;;;;;;;20.30;28.17;100639.08;1727115;82;21081;-42
2021/10/03 10:27:41;;;;;;;5.78;3.40;;;;;;;20.42;27.57;100635.19;1735359;82;21133;-42
2021/10/03 10:30:13;;;;;;;4.90;3.35;;;;;;;20.52;28.52;100631.05;1724997;82;21329;-42
2021/10/03 10:33:00;;;;;;;5.05;3.17;;;;;;;20.76;28.15;100628.05;1713340;83;21571;-41
2021/10/03 10:35:29;;;;;;;4.45;3.35;;;;;;;20.99;27.57;100635.85;1741663;82;21004;-42
2021/10/03 10:38:04;;;;;;;10.72;3.65;;;;;;;21.16;27.32;100628.91;1735733;81;21044;-42
2021/10/03 10:40:33;;;;;;;5.92;3.70;;;;;;;21.29;26.83;100623.75;1731903;82;21134;-42
2021/10/03 10:43:08;;;;;;;5.00;3.50;;;;;;;21.43;26.87;100622.30;1711875;83;21024;-42
2021/10/03 10:45:37;;;;;;;7.75;3.62;;;;;;;21.55;26.84;100626.56;1700716;82;21521;-42
2021/10/03 10:48:20;;;;;;;5.72;3.50;;;;;;;21.63;26.43;100617.07;1710638;82;21055;-42
2021/10/03 10:50:58;;;;;;;6.95;3.58;;;;;;;21.72;26.77;100620.16;1714207;82;21025;-42
2021/10/03 10:53:35;;;;;;;4.95;3.58;;;;;;;21.77;26.59;100612.05;1721498;82;21539;-42
2021/10/03 10:56:06;;;;;;;3.80;3.00;;;;;;;21.74;26.40;100615.01;1720147;82;21027;-42
2021/10/03 10:58:54;;;;;;;4.75;3.47;;;;;;;21.81;26.45;100612.21;1722225;82;21086;-42
2021/10/03 11:01:37;;;;;;;5.55;3.40;;;;;;;21.93;25.92;100611.74;1721199;82;21089;-42
2021/10/03 11:04:22;;;;;;;5.03;3.37;;;;;;;21.95;25.77;100614.11;1721596;82;21057;-42
2021/10/03 11:06:52;;;;;;;7.22;3.70;;;;;;;21.93;26.00;100604.84;1718720;82;21879;-42
2021/10/03 11:09:19;;;;;;;7.03;3.62;;;;;;;22.04;25.61;100604.77;1735699;82;21001;-42
2021/10/03 11:12:00;;;;;;;4.92;3.58;;;;;;;21.95;26.12;100603.06;1727151;82;20987;-42
2021/10/03 11:14:28;;;;;;;5.20;3.55;;;;;;;21.88;26.04;100602.48;1721288;82;20940;-42
2021/10/03 11:17:05;;;;;;;6.35;3.27;;;;;;;21.75;24.92;100597.85;1721212;82;20965;-42
2021/10/03 11:19:46;;;;;;;8.00;3.80;;;;;;;21.55;25.77;100601.72;1685285;84;21117;-42
2021/10/03 11:22:20;;;;;;;8.18;3.95;;;;;;;21.49;26.25;100597.84;1743804;82;21096;-42
2021/10/03 11:24:53;;;;;;;5.17;3.60;;;;;;;21.65;27.37;100595.35;1746164;82;21019;-42
2021/10/03 11:27:30;;;;;;;5.67;3.30;;;;;;;21.94;26.88;100592.61;1739327;81;21028;-42